createdAt,value
2022-08-27T00:00:15.378Z,18.20
2022-08-27T00:02:43.699Z,21.88
2022-08-27T00:05:12.854Z,22.10
2022-08-27T00:07:39.934Z,17.80
2022-08-27T00:10:09.114Z,19.15
2022-08-27T00:12:36.241Z,25.77
2022-08-27T00:15:04.608Z,21.77
2022-08-27T00:17:31.136Z,24.85
2022-08-27T00:19:57.994Z,19.23
2022-08-27T00:22:24.482Z,16.05
2022-08-27T00:24:50.977Z,20.73
2022-08-27T00:27:17.954Z,20.33
2022-08-27T00:29:44.800Z,23.65
2022-08-27T00:32:11.320Z,21.52
2022-08-27T00:34:37.826Z,20.10
2022-08-27T00:37:06.612Z,18.98
2022-08-27T00:39:34.019Z,19.27
2022-08-27T00:42:03.645Z,26.80
2022-08-27T00:44:31.925Z,18.55
2022-08-27T00:47:02.722Z,21.80
2022-08-27T00:49:43.590Z,18.40
2022-08-27T00:52:22.225Z,15.07
2022-08-27T00:54:52.203Z,21.88
2022-08-27T00:57:19.192Z,22.63
2022-08-27T00:59:46.409Z,21.92
2022-08-27T01:02:19.133Z,21.15
2022-08-27T01:04:55.489Z,18.42
2022-08-27T01:07:31.004Z,21.58
2022-08-27T01:10:00.276Z,26.88
2022-08-27T01:12:28.385Z,24.60
2022-08-27T01:14:56.679Z,23.60
2022-08-27T01:17:24.788Z,26.10
2022-08-27T01:19:58.617Z,21.45
2022-08-27T01:22:43.307Z,28.10
2022-08-27T01:25:14.323Z,24.45
2022-08-27T01:27:43.412Z,24.70
2022-08-27T01:30:12.935Z,24.80
2022-08-27T01:32:39.983Z,19.05
2022-08-27T01:35:09.330Z,25.15
2022-08-27T01:37:36.821Z,23.75
2022-08-27T01:40:04.775Z,23.17
2022-08-27T01:42:41.031Z,24.52
2022-08-27T01:45:14.264Z,20.88
2022-08-27T01:47:41.008Z,25.55
2022-08-27T01:50:13.746Z,23.20
2022-08-27T01:52:40.704Z,24.05
2022-08-27T01:55:09.608Z,26.42
2022-08-27T01:57:36.209Z,23.73
2022-08-27T02:00:14.175Z,25.98
2022-08-27T02:02:41.152Z,24.25
2022-08-27T02:05:08.779Z,26.48
2022-08-27T02:07:36.573Z,40.33
2022-08-27T02:10:04.763Z,29.08
2022-08-27T02:12:31.252Z,27.30
2022-08-27T02:14:57.754Z,31.10
2022-08-27T02:17:24.298Z,29.63
2022-08-27T02:19:50.791Z,25.85
2022-08-27T02:22:17.303Z,32.85
2022-08-27T02:24:43.766Z,28.65
2022-08-27T02:27:11.136Z,38.10
2022-08-27T02:29:37.930Z,34.65
2022-08-27T02:32:04.477Z,30.50
2022-08-27T02:34:30.954Z,35.88
2022-08-27T02:36:57.507Z,30.38
2022-08-27T02:39:24.018Z,32.78
2022-08-27T02:41:50.562Z,33.05
2022-08-27T02:44:17.206Z,36.38
2022-08-27T02:46:43.748Z,28.70
2022-08-27T02:49:10.807Z,37.25
2022-08-27T02:51:37.674Z,35.83
2022-08-27T02:54:05.552Z,30.13
2022-08-27T02:56:36.018Z,35.13
2022-08-27T02:59:02.535Z,33.45
2022-08-27T03:01:29.166Z,37.60
2022-08-27T03:03:57.340Z,30.60
2022-08-27T03:06:23.832Z,32.85
2022-08-27T03:08:53.146Z,31.90
2022-08-27T03:11:20.345Z,30.92
2022-08-27T03:13:46.890Z,33.63
2022-08-27T03:16:13.477Z,33.45
2022-08-27T03:18:40.593Z,33.58
2022-08-27T03:21:08.133Z,33.35
2022-08-27T03:23:35.379Z,30.92
2022-08-27T03:26:05.010Z,23.20
2022-08-27T03:28:34.038Z,37.70
2022-08-27T03:31:04.592Z,38.00
2022-08-27T03:33:33.799Z,42.33
2022-08-27T03:36:00.346Z,38.22
2022-08-27T03:38:27.286Z,39.47
2022-08-27T03:40:54.298Z,37.08
2022-08-27T03:43:22.190Z,27.60
2022-08-27T03:46:00.560Z,41.83
2022-08-27T03:48:29.056Z,42.60
2022-08-27T03:50:55.811Z,39.00
2022-08-27T03:53:22.344Z,37.28
2022-08-27T03:55:49.238Z,39.92
2022-08-27T03:58:16.850Z,40.47
2022-08-27T04:00:43.430Z,31.60
2022-08-27T04:03:13.196Z,29.65
2022-08-27T04:05:40.715Z,38.20
2022-08-27T04:08:13.240Z,35.63
2022-08-27T04:13:09.056Z,31.48
2022-08-27T04:15:37.825Z,37.75
2022-08-27T04:18:07.545Z,40.03
2022-08-27T04:20:35.726Z,38.40
2022-08-27T04:23:02.676Z,35.50
2022-08-27T04:25:29.459Z,38.47
2022-08-27T04:27:55.971Z,35.53
2022-08-27T04:30:22.473Z,35.55
2022-08-27T04:32:49.265Z,36.53
2022-08-27T04:35:16.049Z,36.80
2022-08-27T04:37:43.172Z,28.70
2022-08-27T04:40:10.385Z,35.80
2022-08-27T04:42:36.850Z,36.97
2022-08-27T04:45:04.360Z,38.83
2022-08-27T04:47:31.078Z,31.73
2022-08-27T04:49:57.837Z,34.10
2022-08-27T04:52:24.938Z,36.03
2022-08-27T04:54:51.953Z,39.90
2022-08-27T04:57:18.796Z,32.50
2022-08-27T04:59:45.516Z,28.08
2022-08-27T05:02:12.582Z,31.25
2022-08-27T05:04:40.647Z,36.03
2022-08-27T05:07:09.267Z,28.88
2022-08-27T05:09:36.291Z,29.58
2022-08-27T05:12:03.362Z,27.33
2022-08-27T05:14:30.406Z,34.58
2022-08-27T05:16:59.025Z,31.65
2022-08-27T05:19:25.994Z,34.20
2022-08-27T05:21:55.661Z,28.75
2022-08-27T05:24:22.414Z,32.33
2022-08-27T05:26:49.956Z,29.60
2022-08-27T05:29:17.123Z,37.55
2022-08-27T05:31:43.754Z,27.50
2022-08-27T05:34:16.572Z,29.40
2022-08-27T05:36:49.243Z,28.80
2022-08-27T05:39:16.640Z,24.33
2022-08-27T05:41:43.204Z,28.10
2022-08-27T05:44:37.264Z,32.03
2022-08-27T05:46:57.338Z,22.92
2022-08-27T05:49:23.809Z,26.38
2022-08-27T05:51:50.289Z,23.60
2022-08-27T05:54:19.178Z,22.92
2022-08-27T05:56:46.524Z,27.42
2022-08-27T05:59:31.799Z,25.70
2022-08-27T06:02:01.453Z,26.65
2022-08-27T06:04:28.105Z,30.58
2022-08-27T06:06:54.688Z,23.42
2022-08-27T06:09:25.448Z,21.83
2022-08-27T06:11:56.402Z,21.90
2022-08-27T06:14:23.247Z,20.73
2022-08-27T06:16:50.011Z,18.15
2022-08-27T06:19:16.728Z,17.15
2022-08-27T06:21:43.814Z,19.48
2022-08-27T06:24:14.875Z,18.70
2022-08-27T06:26:44.475Z,19.02
2022-08-27T06:29:12.825Z,17.70
2022-08-27T06:31:40.396Z,20.92
2022-08-27T06:34:09.970Z,22.92
2022-08-27T06:36:39.429Z,16.13
2022-08-27T06:39:07.348Z,21.08
2022-08-27T06:41:35.105Z,19.90
2022-08-27T06:44:01.586Z,20.00
2022-08-27T06:46:29.444Z,25.67
2022-08-27T06:48:58.883Z,22.30
2022-08-27T06:51:31.422Z,21.60
2022-08-27T06:54:01.090Z,24.52
2022-08-27T06:56:28.581Z,22.80
2022-08-27T06:58:57.361Z,18.67
2022-08-27T07:01:36.613Z,17.48
2022-08-27T07:04:07.128Z,15.27
2022-08-27T07:06:35.885Z,19.67
2022-08-27T07:09:02.725Z,13.27
2022-08-27T07:11:31.941Z,14.35
2022-08-27T07:13:59.081Z,15.90
2022-08-27T07:16:27.217Z,17.98
2022-08-27T07:18:56.808Z,18.05
2022-08-27T07:21:28.524Z,17.42
2022-08-27T07:23:58.889Z,17.42
2022-08-27T07:26:26.636Z,21.17
2022-08-27T07:28:53.503Z,18.63
2022-08-27T07:31:22.792Z,15.40
2022-08-27T07:33:52.548Z,14.05
2022-08-27T07:36:22.952Z,12.05
2022-08-27T07:39:00.866Z,14.18
2022-08-27T07:41:31.330Z,14.75
2022-08-27T07:44:18.737Z,14.48
2022-08-27T07:46:48.773Z,15.90
2022-08-27T07:49:17.210Z,14.13
2022-08-27T07:51:43.733Z,10.40
2022-08-27T07:54:10.716Z,15.40
2022-08-27T07:56:37.184Z,12.60
2022-08-27T07:59:03.911Z,16.30
2022-08-27T08:01:30.447Z,18.55
2022-08-27T08:03:57.095Z,10.48
2022-08-27T08:06:23.634Z,15.80
2022-08-27T08:08:50.227Z,15.43
2022-08-27T08:11:18.273Z,16.02
2022-08-27T08:13:46.117Z,13.15
2022-08-27T08:16:13.843Z,14.75
2022-08-27T08:18:40.892Z,19.00
2022-08-27T08:21:11.236Z,13.32
2022-08-27T08:23:38.369Z,15.93
2022-08-27T08:26:05.658Z,17.95
2022-08-27T08:28:32.877Z,16.88
2022-08-27T08:31:00.091Z,19.25
2022-08-27T08:33:27.830Z,13.63
2022-08-27T08:35:54.738Z,18.38
2022-08-27T08:38:21.841Z,25.88
2022-08-27T08:40:54.518Z,19.73
2022-08-27T08:43:33.107Z,16.52
2022-08-27T08:46:09.795Z,16.17
2022-08-27T08:48:40.521Z,14.82
2022-08-27T08:51:21.610Z,16.58
2022-08-27T08:54:04.624Z,18.10
2022-08-27T08:56:37.006Z,15.25
2022-08-27T08:59:05.942Z,18.75
2022-08-27T09:01:32.467Z,15.43
2022-08-27T09:04:05.176Z,18.73
2022-08-27T09:06:53.062Z,15.63
2022-08-27T09:09:28.006Z,18.17
2022-08-27T09:12:19.118Z,18.15
2022-08-27T09:15:04.111Z,19.67
2022-08-27T09:17:32.522Z,22.88
2022-08-27T09:19:59.419Z,18.48
2022-08-27T09:22:50.167Z,16.17
2022-08-27T09:25:26.642Z,15.15
2022-08-27T09:27:56.673Z,15.82
2022-08-27T09:30:30.513Z,16.10
2022-08-27T09:33:01.121Z,16.98
2022-08-27T09:35:44.726Z,19.30
2022-08-27T09:38:14.068Z,17.58
2022-08-27T09:40:49.115Z,18.10
2022-08-27T09:43:15.584Z,14.45
2022-08-27T09:45:49.552Z,16.00
2022-08-27T09:48:31.080Z,15.18
2022-08-27T09:51:02.399Z,22.40
2022-08-27T09:53:51.643Z,20.80
2022-08-27T09:56:38.013Z,19.60
2022-08-27T09:59:10.761Z,19.98
2022-08-27T10:01:53.873Z,18.75
2022-08-27T10:04:51.342Z,15.10
2022-08-27T10:07:37.179Z,19.63
2022-08-27T10:10:13.122Z,16.90
2022-08-27T10:13:19.784Z,16.35
2022-08-27T10:16:06.850Z,15.30
2022-08-27T10:18:54.633Z,14.07
2022-08-27T10:21:27.235Z,15.25
2022-08-27T10:24:13.213Z,10.57
2022-08-27T10:26:54.887Z,15.18
2022-08-27T10:29:55.134Z,9.93
2022-08-27T10:32:31.196Z,13.30
2022-08-27T10:35:18.110Z,14.75
2022-08-27T10:38:05.981Z,15.43
2022-08-27T10:40:38.609Z,11.35
2022-08-27T10:43:37.316Z,10.98
2022-08-27T10:46:10.916Z,13.68
2022-08-27T10:48:42.706Z,14.90
2022-08-27T10:51:33.735Z,14.02
2022-08-27T10:54:07.511Z,17.65
2022-08-27T10:57:03.651Z,13.82
2022-08-27T10:59:45.117Z,10.55
2022-08-27T11:02:20.599Z,12.88
2022-08-27T11:04:52.851Z,11.60
2022-08-27T11:07:27.038Z,9.82
2022-08-27T11:10:02.039Z,7.93
2022-08-27T11:12:36.358Z,10.38
2022-08-27T11:15:12.745Z,8.88
2022-08-27T11:17:42.511Z,11.43
2022-08-27T11:20:27.147Z,8.02
2022-08-27T11:23:12.111Z,12.23
2022-08-27T11:26:02.408Z,11.15
2022-08-27T11:28:41.907Z,13.68
2022-08-27T11:31:31.513Z,12.85
2022-08-27T11:34:07.902Z,11.32
2022-08-27T11:37:12.699Z,8.93
2022-08-27T11:39:52.064Z,12.18
2022-08-27T11:42:37.076Z,10.30
2022-08-27T11:45:08.663Z,10.73
2022-08-27T11:47:35.571Z,6.50
2022-08-27T11:50:16.021Z,9.50
2022-08-27T11:52:59.426Z,13.20
2022-08-27T11:55:31.939Z,8.48
2022-08-27T11:58:27.556Z,15.60
2022-08-27T12:00:54.445Z,9.35
2022-08-27T12:03:31.475Z,10.77
2022-08-27T12:05:58.905Z,10.48
2022-08-27T12:08:31.555Z,11.85
2022-08-27T12:11:19.734Z,14.32
2022-08-27T12:14:12.307Z,9.10
2022-08-27T12:16:46.139Z,8.75
2022-08-27T12:19:23.395Z,14.45
2022-08-27T12:22:05.085Z,12.52
2022-08-27T12:24:34.246Z,11.43
2022-08-27T12:27:15.516Z,11.90
2022-08-27T12:29:57.164Z,14.77
2022-08-27T12:32:28.685Z,8.70
2022-08-27T12:35:21.415Z,11.38
2022-08-27T12:38:03.876Z,12.30
2022-08-27T12:40:46.508Z,8.82
2022-08-27T12:43:17.970Z,13.98
2022-08-27T12:48:23.973Z,11.40
2022-08-27T12:50:53.461Z,17.77
2022-08-27T12:53:43.610Z,18.58
2022-08-27T12:56:45.359Z,9.02
2022-08-27T13:02:10.084Z,9.15
2022-08-27T13:04:41.008Z,10.73
2022-08-27T13:07:07.616Z,12.07
2022-08-27T13:09:37.456Z,13.10
2022-08-27T13:12:14.606Z,8.93
2022-08-27T13:14:41.385Z,10.85
2022-08-27T13:17:17.750Z,11.02
2022-08-27T13:19:51.188Z,10.88
2022-08-27T13:22:31.814Z,11.38
2022-08-27T13:25:02.383Z,6.93
2022-08-27T13:27:32.604Z,12.07
2022-08-27T13:30:07.450Z,11.40
2022-08-27T13:32:34.615Z,7.80
2022-08-27T13:35:01.900Z,11.63
2022-08-27T13:37:34.740Z,13.75
2022-08-27T13:40:01.380Z,16.90
2022-08-27T13:42:28.442Z,15.68
2022-08-27T13:45:02.835Z,11.48
2022-08-27T13:47:30.711Z,10.57
2022-08-27T13:50:07.655Z,7.28
2022-08-27T13:52:36.246Z,12.73
2022-08-27T13:55:09.859Z,10.90
2022-08-27T13:57:48.937Z,9.80
2022-08-27T14:00:20.566Z,10.98
2022-08-27T14:02:54.115Z,10.43
2022-08-27T14:05:25.434Z,10.57
2022-08-27T14:08:01.906Z,11.95
2022-08-27T14:10:41.359Z,7.20
2022-08-27T14:13:11.413Z,12.65
2022-08-27T14:15:42.949Z,11.18
2022-08-27T14:18:47.966Z,6.63
2022-08-27T14:21:15.227Z,10.70
2022-08-27T14:23:41.701Z,8.82
2022-08-27T14:26:08.521Z,8.70
2022-08-27T14:28:35.541Z,11.50
2022-08-27T14:31:02.136Z,10.30
2022-08-27T14:33:28.883Z,10.43
2022-08-27T14:35:55.478Z,7.05
2022-08-27T14:38:23.789Z,10.20
2022-08-27T14:40:53.640Z,10.57
2022-08-27T14:43:23.048Z,7.13
2022-08-27T14:45:51.728Z,7.95
2022-08-27T14:48:25.942Z,11.25
2022-08-27T14:50:55.392Z,9.57
2022-08-27T14:53:22.008Z,7.72
2022-08-27T14:55:51.654Z,11.40
2022-08-27T14:58:19.080Z,7.93
2022-08-27T15:00:45.682Z,9.70
2022-08-27T15:03:12.993Z,8.85
2022-08-27T15:05:39.554Z,10.48
2022-08-27T15:08:07.539Z,12.85
2022-08-27T15:10:36.065Z,12.88
2022-08-27T15:13:02.576Z,11.40
2022-08-27T15:15:29.091Z,12.20
2022-08-27T15:17:55.589Z,11.60
2022-08-27T15:20:22.132Z,10.07
2022-08-27T15:22:52.044Z,11.60
2022-08-27T15:25:19.808Z,12.20
2022-08-27T15:27:46.304Z,13.32
2022-08-27T15:30:15.495Z,10.50
2022-08-27T15:32:47.914Z,11.32
2022-08-27T15:35:18.706Z,9.52
2022-08-27T15:37:45.770Z,13.27
2022-08-27T15:40:14.556Z,11.82
2022-08-27T15:42:41.346Z,9.15
2022-08-27T15:45:08.895Z,11.90
2022-08-27T15:47:35.474Z,16.85
2022-08-27T15:50:01.966Z,12.40
2022-08-27T15:52:36.338Z,9.00
2022-08-27T15:55:15.498Z,6.60
2022-08-27T15:57:41.983Z,6.75
2022-08-27T16:00:09.167Z,7.18
2022-08-27T16:02:35.933Z,15.38
2022-08-27T16:05:02.641Z,7.00
2022-08-27T16:07:29.224Z,8.35
2022-08-27T16:09:55.766Z,10.73
2022-08-27T16:12:27.107Z,10.32
2022-08-27T16:14:55.094Z,8.32
2022-08-27T16:17:21.930Z,11.02
2022-08-27T16:19:49.351Z,7.88
2022-08-27T16:22:16.305Z,7.55
2022-08-27T16:24:43.336Z,9.07
2022-08-27T16:27:10.213Z,8.20
2022-08-27T16:29:37.031Z,13.20
2022-08-27T16:32:04.277Z,12.13
2022-08-27T16:34:31.033Z,6.28
2022-08-27T16:36:57.631Z,8.32
2022-08-27T16:39:24.104Z,9.88
2022-08-27T16:41:50.636Z,8.40
2022-08-27T16:44:17.632Z,9.63
2022-08-27T16:46:44.253Z,13.73
2022-08-27T16:49:29.107Z,4.43
2022-08-27T16:51:55.744Z,6.97
2022-08-27T16:54:22.477Z,4.45
2022-08-27T16:56:49.686Z,6.88
2022-08-27T16:59:16.703Z,4.78
2022-08-27T17:01:43.522Z,5.85
2022-08-27T17:04:21.354Z,4.43
2022-08-27T17:06:51.683Z,5.75
2022-08-27T17:09:19.085Z,4.50
2022-08-27T17:11:50.478Z,12.32
2022-08-27T17:14:16.954Z,4.68
2022-08-27T17:16:43.906Z,5.75
2022-08-27T17:19:16.759Z,8.07
2022-08-27T17:21:45.249Z,9.70
2022-08-27T17:24:12.479Z,6.25
2022-08-27T17:26:39.300Z,5.20
2022-08-27T17:29:05.943Z,8.32
2022-08-27T17:31:36.860Z,8.25
2022-08-27T17:34:05.717Z,5.80
2022-08-27T17:36:33.339Z,4.38
2022-08-27T17:39:00.195Z,4.78
2022-08-27T17:41:33.650Z,6.40
2022-08-27T17:44:15.999Z,5.03
2022-08-27T17:49:09.472Z,10.00
2022-08-27T17:51:36.041Z,5.13
2022-08-27T17:54:03.321Z,4.70
2022-08-27T17:56:29.986Z,5.30
2022-08-27T17:58:56.772Z,8.35
2022-08-27T18:01:31.585Z,8.45
2022-08-27T18:03:58.727Z,6.35
2022-08-27T18:06:27.875Z,5.13
2022-08-27T18:08:54.584Z,6.68
2022-08-27T18:11:21.379Z,5.90
2022-08-27T18:13:54.031Z,4.38
2022-08-27T18:16:21.800Z,8.10
2022-08-27T18:18:48.528Z,6.25
2022-08-27T18:21:24.935Z,6.05
2022-08-27T18:23:52.765Z,6.70
2022-08-27T18:26:21.498Z,4.53
2022-08-27T18:28:48.999Z,4.55
2022-08-27T18:31:18.408Z,5.90
2022-08-27T18:33:45.139Z,9.43
2022-08-27T18:36:11.892Z,6.93
2022-08-27T18:38:38.423Z,8.43
2022-08-27T18:41:06.238Z,3.55
2022-08-27T18:43:35.221Z,6.00
2022-08-27T18:46:03.418Z,5.18
2022-08-27T18:48:30.105Z,10.05
2022-08-27T18:50:59.302Z,12.57
2022-08-27T18:53:28.843Z,7.70
2022-08-27T18:55:55.554Z,6.38
2022-08-27T18:58:22.448Z,9.55
2022-08-27T19:00:53.430Z,4.72
2022-08-27T19:03:25.197Z,6.25
2022-08-27T19:05:55.047Z,5.28
2022-08-27T19:08:23.992Z,5.60
2022-08-27T19:10:50.965Z,9.15
2022-08-27T19:13:17.830Z,3.83
2022-08-27T19:15:50.896Z,9.63
2022-08-27T19:18:18.557Z,9.82
2022-08-27T19:20:45.083Z,7.75
2022-08-27T19:23:11.726Z,5.93
2022-08-27T19:25:38.406Z,4.63
2022-08-27T19:28:05.006Z,4.47
2022-08-27T19:30:32.808Z,3.95
2022-08-27T19:32:59.343Z,4.63
2022-08-27T19:35:25.872Z,7.25
2022-08-27T19:37:53.471Z,5.55
2022-08-27T19:40:21.994Z,8.23
2022-08-27T19:42:49.454Z,7.53
2022-08-27T19:45:16.263Z,5.57
2022-08-27T19:47:50.348Z,6.80
2022-08-27T19:50:17.471Z,5.82
2022-08-27T19:52:44.168Z,6.65
2022-08-27T19:55:13.917Z,4.43
2022-08-27T19:57:41.535Z,4.65
2022-08-27T20:00:09.597Z,9.20
2022-08-27T20:02:36.200Z,8.25
2022-08-27T20:05:17.382Z,6.50
2022-08-27T20:07:45.919Z,5.65
2022-08-27T20:10:12.510Z,5.10
2022-08-27T20:12:39.059Z,6.80
2022-08-27T20:15:06.772Z,6.00
2022-08-27T20:17:34.979Z,10.68
2022-08-27T20:20:01.810Z,6.82
2022-08-27T20:22:28.296Z,6.10
2022-08-27T20:24:54.872Z,5.40
2022-08-27T20:27:21.468Z,6.78
2022-08-27T20:29:48.641Z,4.53
2022-08-27T20:32:15.301Z,5.60
2022-08-27T20:34:42.017Z,6.47
2022-08-27T20:37:08.687Z,12.63
2022-08-27T20:39:35.382Z,6.88
2022-08-27T20:42:01.961Z,6.40
2022-08-27T20:44:29.175Z,7.82
2022-08-27T20:46:59.762Z,9.43
2022-08-27T20:49:27.911Z,6.15
2022-08-27T20:52:03.236Z,11.15
2022-08-27T20:54:31.554Z,10.07
2022-08-27T20:56:58.605Z,8.85
2022-08-27T20:59:43.926Z,10.90
2022-08-27T21:02:14.113Z,10.25
2022-08-27T21:04:46.447Z,10.93
2022-08-27T21:07:14.131Z,9.48
2022-08-27T21:09:56.431Z,8.07
2022-08-27T21:12:28.420Z,8.48
2022-08-27T21:14:55.851Z,12.40
2022-08-27T21:17:29.497Z,13.93
2022-08-27T21:19:56.478Z,6.05
2022-08-27T21:22:23.812Z,9.00
2022-08-27T21:24:50.351Z,7.15
2022-08-27T21:27:18.338Z,9.80
2022-08-27T21:29:45.204Z,8.48
2022-08-27T21:32:12.604Z,8.57
2022-08-27T21:34:39.677Z,10.48
2022-08-27T21:37:06.162Z,17.08
2022-08-27T21:39:34.167Z,9.93
2022-08-27T21:42:01.680Z,12.73
2022-08-27T21:44:30.409Z,13.90
2022-08-27T21:46:57.771Z,11.20
2022-08-27T21:49:24.306Z,9.68
2022-08-27T21:51:50.881Z,9.43
2022-08-27T21:54:17.550Z,11.13
2022-08-27T21:56:44.540Z,14.27
2022-08-27T21:59:11.121Z,14.07
2022-08-27T22:01:37.718Z,12.98
2022-08-27T22:04:04.221Z,12.95
2022-08-27T22:06:30.733Z,12.20
2022-08-27T22:08:57.228Z,13.43
2022-08-27T22:11:24.542Z,11.27
2022-08-27T22:13:51.952Z,10.23
2022-08-27T22:16:19.298Z,11.40
2022-08-27T22:18:45.825Z,12.30
2022-08-27T22:21:12.492Z,14.25
2022-08-27T22:23:39.004Z,14.23
2022-08-27T22:26:09.696Z,13.97
2022-08-27T22:28:36.202Z,11.55
2022-08-27T22:31:02.744Z,12.63
2022-08-27T22:33:29.290Z,13.98
2022-08-27T22:35:55.867Z,15.13
2022-08-27T22:38:22.358Z,13.57
2022-08-27T22:40:50.124Z,12.27
2022-08-27T22:43:17.016Z,10.40
2022-08-27T22:45:43.495Z,16.65
2022-08-27T22:48:10.171Z,13.95
2022-08-27T22:50:36.764Z,9.80
2022-08-27T22:53:03.426Z,16.77
2022-08-27T22:55:29.954Z,15.00
2022-08-27T22:57:56.532Z,20.23
2022-08-27T23:00:26.990Z,10.82
2022-08-27T23:02:54.089Z,9.85
2022-08-27T23:05:21.455Z,12.68
2022-08-27T23:07:48.378Z,15.52
2022-08-27T23:10:18.315Z,15.85
2022-08-27T23:12:46.510Z,11.90
2022-08-27T23:15:15.611Z,13.88
2022-08-27T23:17:42.144Z,10.57
2022-08-27T23:20:10.917Z,14.18
2022-08-27T23:22:38.787Z,12.68
2022-08-27T23:25:26.185Z,12.27
2022-08-27T23:27:53.681Z,14.93
2022-08-27T23:30:21.466Z,10.43
2022-08-27T23:32:53.762Z,9.13
2022-08-27T23:35:22.544Z,17.70
2022-08-27T23:37:50.026Z,15.57
2022-08-27T23:40:17.800Z,15.30
2022-08-27T23:42:45.261Z,12.55
2022-08-27T23:45:15.210Z,11.85
2022-08-27T23:47:41.681Z,13.13
2022-08-27T23:50:09.545Z,13.88
2022-08-27T23:52:37.212Z,16.98
2022-08-27T23:55:05.154Z,17.45
2022-08-27T23:57:31.658Z,13.77
2022-08-27T23:59:58.152Z,18.75
